KHOU/HOU METAR and TAF weather

Enter ICAO airport designator
Station Type Date Time Source
KHOU METAR 2020/01/29 02:53 UTC NOAA

KHOU 290253Z 29015G28KT 10SM FEW040 FEW050 15/08 A2990 RMK AO2 PK WND 29028/0250 RAB27E39 SLP131 FROPA P0006 60006 T01500078 53020 $


Station Type Date Time Source
KHOU Decoded METAR 2020/01/29 02:53 UTC NOAA

HOUSTON HOBBY AIRPORT, TX, United States (KHOU) 29-38N 095-17W 36M
Jan 28, 2020 - 09:53 PM EST / 2020.01.29 0253 UTC
Wind: from the WNW (290 degrees) at 17 MPH (15 KT) gusting to 32 MPH (28 KT):0
Visibility: 10 mile(s):0
Sky conditions: mostly clear
Precipitation last hour: 0.06 inches
Temperature: 59.0 F (15.0 C)
Dew Point: 46.0 F (7.8 C)
Relative Humidity: 62%
Pressure (altimeter): 29.9 in. Hg (1012 hPa)
Pressure tendency: 0.06 inches (2.0 hPa) higher than three hours ago
ob: KHOU 290253Z 29015G28KT 10SM FEW040 FEW050 15/08 A2990 RMK AO2 PK WND 29028/0250 RAB27E39 SLP131 FROPA P0006 60006 T01500078 53020
cycle: 3

Station Type Date Time Source
KHOU TAF 2020/01/29 03:16 UTC NOAA

TAF
AMD KHOU 290314Z 2903/2924 29012G26KT P6SM SCT050
FM290800 30010KT P6SM FEW030 SCT050
FM291500 31012G24KT P6SM BKN030

Example: see airport list